Eugene, OR (97401)

10:50 PM PST on February 20, 2018 (GMT -0800)
Original Cal Young | | Change Station
Active Advisory: Winter Weather Advisory

Elev 423 ft 44.08 °N, 123.08 °W | Updated 9 seconds ago

Rain
Rain
35.2 °F
Feels Like 35 °F
N
0.0
Wind Variable Wind from SE
Gusts 0.0 mph

Today
High -- | Low -- °F
--% Chance of Precip.
Yesterday
High -- | Low -- °F
Precip. -- in
Pressure 30.18 in
Visibility 8.0 miles
Clouds Overcast 1800 ft
Windchill 35 °F
Dew Point 33 °F
Humidity 92%
Rainfall 0.14 in
Snow Depth Not available.
7:03 AM 5:48 PM
Waxing Crescent, 28% visible
METAR KEUG 210554Z 24003KT 8SM -RA OVC018 02/01 A3017 RMK AO2 RAB0456 SLP218 P0007 60007 T00220011 10050 20022 53013
Pressure 30.18 in
Visibility 8.0 miles
Clouds Overcast 1800 ft
Windchill 35 °F
Dew Point 33 °F
Humidity 92%
Rainfall 0.14 in
Snow Depth Not available.
7:03 AM 5:48 PM
Waxing Crescent, 28% visible
METAR KEUG 210554Z 24003KT 8SM -RA OVC018 02/01 A3017 RMK AO2 RAB0456 SLP218 P0007 60007 T00220011 10050 20022 53013

Get Your Daily Forecast Email!

Thanks for signing up!

Be on the lookout for a verification email in your inbox.

You'll start receiving severe weather alerts in your inbox..

×

10-Day Weather Forecast

Almanac

Astronomy

Feb. 20, 2018 Rise Set
Actual Time
Civil Twilight
Nautical Twilight
Astronomical Twilight
Moon
Length of Visible Light
Length of Day
Tomorrow will be .
, % of the Moon is Illuminated

Today's Extremes

State Highs State Lows

Community

WunderPhotos

Category 6

Welcome to Category 6. This is the collective home for Weather Underground's featured writeups by Dr. Jeff Masters (right), Bob Henson (left), Chris Burt, and other regular contributors.

Nearby

Air Quality

  Air Quality AQ Index Pollutant
Not available.

Snow Depth

Station Depth Elevation

Earthquake Activity

City Distance Mag. Time & Date
Minimum magnitude displayed is 2.5.

Coastal Water Temperatures

Place Temperature

Stations

Nearby Weather Stations

Station Location Temp. Windchill Dew Point Humidity Wind Precip. Elev Updated Type
                   

Watches & Warnings

Winter Weather Advisory
Issued: 8:08 PM PST Feb. 20, 2018 – National Weather Service

... Winter Weather Advisory remains in effect until 7 am PST
Wednesday...

* what... snow. Additional snow accumulations of up to 2 inches
are expected.

* Where... south Willamette Valley.

* When... until 7 am PST Wednesday.

* Additional details... plan on slippery Road conditions. Expect
reduced visibilities at times.

Precautionary/preparedness actions...

A Winter Weather Advisory for snow means periods of snow will
cause primarily travel difficulties. Expect snow covered roads
and limited visibilities, and use caution while driving. The
latest Road conditions for the state you are calling from can be
obtained by calling 5 1 1.